sensor_id;sensor_type;location;lat;lon;timestamp;pressure;altitude;pressure_sealevel;temperature;humidity
16120;BME280;12670;53.502;10.252;2023-04-28T00:02:21;101510.28;;;6.24;92.02
16120;BME280;12670;53.502;10.252;2023-04-28T00:05:24;101504.25;;;6.14;93.28
16120;BME280;12670;53.502;10.252;2023-04-28T00:08:29;101509.59;;;6.08;93.65
16120;BME280;12670;53.502;10.252;2023-04-28T00:11:31;101506.09;;;6.06;93.05
16120;BME280;12670;53.502;10.252;2023-04-28T00:14:34;101509.63;;;6.05;93.60
16120;BME280;12670;53.502;10.252;2023-04-28T00:17:37;101503.50;;;6.05;93.31
16120;BME280;12670;53.502;10.252;2023-04-28T00:20:39;101493.94;;;5.95;93.66
16120;BME280;12670;53.502;10.252;2023-04-28T00:23:43;101493.91;;;5.96;92.49
16120;BME280;12670;53.502;10.252;2023-04-28T00:26:46;101488.66;;;5.96;92.88
16120;BME280;12670;53.502;10.252;2023-04-28T00:29:48;101497.31;;;6.07;92.94
16120;BME280;12670;53.502;10.252;2023-04-28T00:32:51;101487.81;;;5.94;93.05
16120;BME280;12670;53.502;10.252;2023-04-28T00:35:58;101494.00;;;5.84;93.90
16120;BME280;12670;53.502;10.252;2023-04-28T00:39:02;101486.16;;;5.81;94.25
16120;BME280;12670;53.502;10.252;2023-04-28T00:42:05;101483.47;;;5.84;94.33
16120;BME280;12670;53.502;10.252;2023-04-28T00:45:08;101478.34;;;5.69;93.48
16120;BME280;12670;53.502;10.252;2023-04-28T00:48:12;101483.66;;;5.66;93.63
16120;BME280;12670;53.502;10.252;2023-04-28T00:51:15;101476.69;;;5.61;93.83
16120;BME280;12670;53.502;10.252;2023-04-28T00:54:19;101467.88;;;5.66;93.68
16120;BME280;12670;53.502;10.252;2023-04-28T00:57:22;101464.41;;;5.60;94.64
16120;BME280;12670;53.502;10.252;2023-04-28T01:00:25;101460.94;;;5.58;93.96
16120;BME280;12670;53.502;10.252;2023-04-28T01:03:28;101466.19;;;5.58;93.76
16120;BME280;12670;53.502;10.252;2023-04-28T01:06:31;101468.88;;;5.54;93.48
16120;BME280;12670;53.502;10.252;2023-04-28T01:09:35;101459.28;;;5.48;93.83
16120;BME280;12670;53.502;10.252;2023-04-28T01:12:37;101453.94;;;5.54;93.18
16120;BME280;12670;53.502;10.252;2023-04-28T01:15:40;101455.75;;;5.49;93.09
16120;BME280;12670;53.502;10.252;2023-04-28T01:18:46;101456.63;;;5.48;93.19
16120;BME280;12670;53.502;10.252;2023-04-28T01:21:49;101449.66;;;5.43;93.51
16120;BME280;12670;53.502;10.252;2023-04-28T01:24:53;101446.19;;;5.39;93.80
16120;BME280;12670;53.502;10.252;2023-04-28T01:27:55;101449.72;;;5.37;94.44
16120;BME280;12670;53.502;10.252;2023-04-28T01:30:58;101443.50;;;5.44;94.21
16120;BME280;12670;53.502;10.252;2023-04-28T01:34:01;101448.81;;;5.39;93.92
16120;BME280;12670;53.502;10.252;2023-04-28T01:37:03;101444.38;;;5.44;93.85
16120;BME280;12670;53.502;10.252;2023-04-28T01:40:09;101447.88;;;5.45;94.35
16120;BME280;12670;53.502;10.252;2023-04-28T01:43:11;101445.22;;;5.49;95.11
16120;BME280;12670;53.502;10.252;2023-04-28T01:46:14;101435.53;;;5.54;95.38
16120;BME280;12670;53.502;10.252;2023-04-28T01:49:17;101437.25;;;5.58;95.40
16120;BME280;12670;53.502;10.252;2023-04-28T01:52:19;101436.31;;;5.62;94.90
16120;BME280;12670;53.502;10.252;2023-04-28T01:55:24;101425.69;;;5.72;95.26
16120;BME280;12670;53.502;10.252;2023-04-28T01:58:27;101428.31;;;5.72;93.81
16120;BME280;12670;53.502;10.252;2023-04-28T02:01:29;101429.41;;;5.52;94.87
16120;BME280;12670;53.502;10.252;2023-04-28T02:04:32;101428.47;;;5.56;94.30
16120;BME280;12670;53.502;10.252;2023-04-28T02:07:35;101424.09;;;5.55;94.35
16120;BME280;12670;53.502;10.252;2023-04-28T02:10:39;101418.06;;;5.44;94.65
16120;BME280;12670;53.502;10.252;2023-04-28T02:13:41;101413.75;;;5.40;94.03
16120;BME280;12670;53.502;10.252;2023-04-28T02:16:44;101412.00;;;5.38;94.31
16120;BME280;12670;53.502;10.252;2023-04-28T02:19:47;101414.66;;;5.34;94.68
16120;BME280;12670;53.502;10.252;2023-04-28T02:22:49;101406.75;;;5.36;94.60
16120;BME280;12670;53.502;10.252;2023-04-28T02:26:00;101404.31;;;5.15;95.60
16120;BME280;12670;53.502;10.252;2023-04-28T02:29:03;101405.06;;;5.29;94.18
16120;BME280;12670;53.502;10.252;2023-04-28T02:32:06;101397.16;;;5.27;95.20
16120;BME280;12670;53.502;10.252;2023-04-28T02:35:09;101402.41;;;5.32;94.87
16120;BME280;12670;53.502;10.252;2023-04-28T02:38:12;101393.69;;;5.27;94.68
16120;BME280;12670;53.502;10.252;2023-04-28T02:41:16;101399.81;;;5.26;94.34
16120;BME280;12670;53.502;10.252;2023-04-28T02:44:19;101399.03;;;5.18;94.13
16120;BME280;12670;53.502;10.252;2023-04-28T02:47:22;101389.47;;;5.11;94.25
16120;BME280;12670;53.502;10.252;2023-04-28T02:50:24;101384.16;;;5.14;95.20
16120;BME280;12670;53.502;10.252;2023-04-28T02:53:27;101374.66;;;4.99;95.32
16120;BME280;12670;53.502;10.252;2023-04-28T02:56:31;101370.22;;;5.02;95.33
16120;BME280;12670;53.502;10.252;2023-04-28T02:59:34;101377.22;;;5.03;95.01
16120;BME280;12670;53.502;10.252;2023-04-28T03:02:36;101371.09;;;5.06;94.64
16120;BME280;12670;53.502;10.252;2023-04-28T03:05:39;101370.28;;;4.99;94.76
16120;BME280;12670;53.502;10.252;2023-04-28T03:08:42;101359.81;;;4.93;95.37
16120;BME280;12670;53.502;10.252;2023-04-28T03:11:46;101350.09;;;5.01;95.49
16120;BME280;12670;53.502;10.252;2023-04-28T03:14:48;101347.44;;;5.03;94.39
16120;BME280;12670;53.502;10.252;2023-04-28T03:17:51;101340.34;;;5.09;94.09
16120;BME280;12670;53.502;10.252;2023-04-28T03:20:54;101345.63;;;5.09;94.01
16120;BME280;12670;53.502;10.252;2023-04-28T03:23:56;101342.06;;;5.17;94.79
16120;BME280;12670;53.502;10.252;2023-04-28T03:27:00;101339.53;;;5.06;94.58
16120;BME280;12670;53.502;10.252;2023-04-28T03:30:05;101334.16;;;5.15;93.85
16120;BME280;12670;53.502;10.252;2023-04-28T03:33:08;101336.78;;;5.18;94.11
16120;BME280;12670;53.502;10.252;2023-04-28T03:36:10;101331.59;;;5.11;94.24
16120;BME280;12670;53.502;10.252;2023-04-28T03:39:15;101334.13;;;5.20;94.32
16120;BME280;12670;53.502;10.252;2023-04-28T03:42:19;101324.63;;;5.03;93.99
16120;BME280;12670;53.502;10.252;2023-04-28T03:45:22;101323.78;;;5.04;94.12
16120;BME280;12670;53.502;10.252;2023-04-28T03:48:24;101317.44;;;5.21;93.75
16120;BME280;12670;53.502;10.252;2023-04-28T03:51:27;101312.28;;;5.13;94.42
16120;BME280;12670;53.502;10.252;2023-04-28T03:54:30;101314.00;;;5.14;94.41
16120;BME280;12670;53.502;10.252;2023-04-28T03:57:34;101315.75;;;5.17;94.37
16120;BME280;12670;53.502;10.252;2023-04-28T04:00:36;101308.72;;;5.19;94.63
16120;BME280;12670;53.502;10.252;2023-04-28T04:03:39;101307.78;;;5.21;94.52
16120;BME280;12670;53.502;10.252;2023-04-28T04:06:42;101308.78;;;5.13;94.43
16120;BME280;12670;53.502;10.252;2023-04-28T04:09:44;101308.78;;;5.13;95.28
16120;BME280;12670;53.502;10.252;2023-04-28T04:12:48;101310.44;;;5.20;94.84
16120;BME280;12670;53.502;10.252;2023-04-28T04:15:51;101301.66;;;5.21;94.54
16120;BME280;12670;53.502;10.252;2023-04-28T04:18:54;101306.78;;;5.33;94.39
16120;BME280;12670;53.502;10.252;2023-04-28T04:21:57;101293.78;;;5.19;94.88
16120;BME280;12670;53.502;10.252;2023-04-28T04:24:59;101290.94;;;5.38;93.84
16120;BME280;12670;53.502;10.252;2023-04-28T04:28:04;101294.44;;;5.38;94.88
16120;BME280;12670;53.502;10.252;2023-04-28T04:31:06;101292.69;;;5.40;95.35
16120;BME280;12670;53.502;10.252;2023-04-28T04:34:09;101286.44;;;5.49;94.67
16120;BME280;12670;53.502;10.252;2023-04-28T04:37:12;101286.25;;;5.62;93.88
16120;BME280;12670;53.502;10.252;2023-04-28T04:40:15;101283.63;;;5.64;93.35
16120;BME280;12670;53.502;10.252;2023-04-28T04:43:19;101284.34;;;5.74;93.22
16120;BME280;12670;53.502;10.252;2023-04-28T04:46:21;101270.22;;;5.82;92.73
16120;BME280;12670;53.502;10.252;2023-04-28T04:49:24;101267.47;;;5.93;92.24
16120;BME280;12670;53.502;10.252;2023-04-28T04:52:27;101273.63;;;5.89;92.57
16120;BME280;12670;53.502;10.252;2023-04-28T04:55:29;101261.34;;;5.89;92.23
16120;BME280;12670;53.502;10.252;2023-04-28T04:58:33;101266.41;;;6.05;92.80
16120;BME280;12670;53.502;10.252;2023-04-28T05:01:36;101262.91;;;6.03;92.55
16120;BME280;12670;53.502;10.252;2023-04-28T05:04:38;101256.66;;;6.11;91.39
16120;BME280;12670;53.502;10.252;2023-04-28T05:07:41;101251.47;;;6.05;92.54
16120;BME280;12670;53.502;10.252;2023-04-28T05:10:44;101258.31;;;6.19;91.35
16120;BME280;12670;53.502;10.252;2023-04-28T05:13:48;101251.13;;;6.27;91.65
16120;BME280;12670;53.502;10.252;2023-04-28T05:16:51;101251.88;;;6.36;90.46
16120;BME280;12670;53.502;10.252;2023-04-28T05:19:54;101253.34;;;6.53;89.91
16120;BME280;12670;53.502;10.252;2023-04-28T05:22:57;101248.03;;;6.56;87.21
16120;BME280;12670;53.502;10.252;2023-04-28T05:25:59;101249.66;;;6.64;85.42
16120;BME280;12670;53.502;10.252;2023-04-28T05:29:04;101250.97;;;6.88;84.26
16120;BME280;12670;53.502;10.252;2023-04-28T05:32:07;101247.03;;;7.09;81.88
16120;BME280;12670;53.502;10.252;2023-04-28T05:35:10;101240.75;;;7.16;82.65
16120;BME280;12670;53.502;10.252;2023-04-28T05:38:12;101248.69;;;7.16;82.35
16120;BME280;12670;53.502;10.252;2023-04-28T05:41:15;101246.94;;;7.14;81.66
16120;BME280;12670;53.502;10.252;2023-04-28T05:44:19;101243.00;;;7.36;81.81
16120;BME280;12670;53.502;10.252;2023-04-28T05:47:22;101241.88;;;7.48;81.89
16120;BME280;12670;53.502;10.252;2023-04-28T05:50:24;101234.31;;;7.71;79.69
16120;BME280;12670;53.502;10.252;2023-04-28T05:53:28;101228.75;;;7.84;76.84
16120;BME280;12670;53.502;10.252;2023-04-28T05:56:31;101223.28;;;7.93;77.90
16120;BME280;12670;53.502;10.252;2023-04-28T05:59:36;101223.91;;;8.04;76.64
16120;BME280;12670;53.502;10.252;2023-04-28T06:02:38;101228.13;;;8.11;76.39
16120;BME280;12670;53.502;10.252;2023-04-28T06:05:41;101226.59;;;8.38;75.49
16120;BME280;12670;53.502;10.252;2023-04-28T06:08:44;101222.94;;;8.44;75.55
16120;BME280;12670;53.502;10.252;2023-04-28T06:11:48;101219.38;;;8.46;73.55
16120;BME280;12670;53.502;10.252;2023-04-28T06:14:52;101212.78;;;8.61;71.89
16120;BME280;12670;53.502;10.252;2023-04-28T06:17:55;101206.09;;;8.82;73.47
16120;BME280;12670;53.502;10.252;2023-04-28T06:20:59;101211.84;;;8.96;69.69
16120;BME280;12670;53.502;10.252;2023-04-28T06:24:02;101206.38;;;9.02;69.74
16120;BME280;12670;53.502;10.252;2023-04-28T06:27:05;101207.41;;;8.98;67.00
16120;BME280;12670;53.502;10.252;2023-04-28T06:30:09;101203.56;;;9.08;68.19
16120;BME280;12670;53.502;10.252;2023-04-28T06:33:12;101207.31;;;9.32;66.25
16120;BME280;12670;53.502;10.252;2023-04-28T06:36:14;101206.66;;;9.54;65.53
16120;BME280;12670;53.502;10.252;2023-04-28T06:39:18;101208.41;;;9.55;64.79
16120;BME280;12670;53.502;10.252;2023-04-28T06:42:21;101204.56;;;9.65;64.16
16120;BME280;12670;53.502;10.252;2023-04-28T06:45:25;101197.16;;;9.76;64.82
16120;BME280;12670;53.502;10.252;2023-04-28T06:48:27;101206.31;;;9.94;62.44
16120;BME280;12670;53.502;10.252;2023-04-28T06:51:30;101199.94;;;10.00;62.30
16120;BME280;12670;53.502;10.252;2023-04-28T06:54:33;101200.06;;;9.97;63.04
16120;BME280;12670;53.502;10.252;2023-04-28T06:57:37;101189.44;;;10.25;62.63
16120;BME280;12670;53.502;10.252;2023-04-28T07:00:41;101190.59;;;10.16;61.10
16120;BME280;12670;53.502;10.252;2023-04-28T07:03:44;101194.66;;;10.28;60.63
16120;BME280;12670;53.502;10.252;2023-04-28T07:06:47;101190.72;;;10.39;65.02
16120;BME280;12670;53.502;10.252;2023-04-28T07:09:49;101186.56;;;10.57;60.43
16120;BME280;12670;53.502;10.252;2023-04-28T07:12:53;101181.63;;;10.47;61.90
16120;BME280;12670;53.502;10.252;2023-04-28T07:15:57;101184.66;;;10.61;62.94
16120;BME280;12670;53.502;10.252;2023-04-28T07:19:00;101175.63;;;10.66;60.21
16120;BME280;12670;53.502;10.252;2023-04-28T07:22:02;101170.50;;;10.62;60.39
16120;BME280;12670;53.502;10.252;2023-04-28T07:25:06;101173.00;;;10.90;61.18
16120;BME280;12670;53.502;10.252;2023-04-28T07:28:08;101160.84;;;11.08;61.50
16120;BME280;12670;53.502;10.252;2023-04-28T07:31:12;101164.16;;;11.14;59.85
16120;BME280;12670;53.502;10.252;2023-04-28T07:34:15;101161.28;;;11.20;58.71
16120;BME280;12670;53.502;10.252;2023-04-28T07:37:18;101164.66;;;11.47;61.03
16120;BME280;12670;53.502;10.252;2023-04-28T07:40:21;101162.56;;;11.78;58.03
16120;BME280;12670;53.502;10.252;2023-04-28T07:43:24;101164.47;;;11.97;57.51
16120;BME280;12670;53.502;10.252;2023-04-28T07:46:28;101164.50;;;12.18;57.97
16120;BME280;12670;53.502;10.252;2023-04-28T07:49:30;101157.56;;;12.36;55.62
16120;BME280;12670;53.502;10.252;2023-04-28T07:52:33;101155.97;;;12.52;55.68
16120;BME280;12670;53.502;10.252;2023-04-28T07:55:36;101153.56;;;12.66;53.89
16120;BME280;12670;53.502;10.252;2023-04-28T07:58:42;101151.03;;;12.63;52.70
16120;BME280;12670;53.502;10.252;2023-04-28T08:01:46;101148.59;;;12.79;56.14
16120;BME280;12670;53.502;10.252;2023-04-28T08:04:48;101138.25;;;13.11;54.71
16120;BME280;12670;53.502;10.252;2023-04-28T08:07:51;101138.72;;;13.20;54.46
16120;BME280;12670;53.502;10.252;2023-04-28T08:10:54;101135.78;;;13.26;53.59
16120;BME280;12670;53.502;10.252;2023-04-28T08:13:57;101143.78;;;13.45;54.36
16120;BME280;12670;53.502;10.252;2023-04-28T08:17:04;101145.09;;;13.55;53.23
16120;BME280;12670;53.502;10.252;2023-04-28T08:20:07;101145.97;;;13.37;51.02
16120;BME280;12670;53.502;10.252;2023-04-28T08:23:11;101140.88;;;13.69;50.73
16120;BME280;12670;53.502;10.252;2023-04-28T08:26:13;101136.84;;;13.60;49.91
16120;BME280;12670;53.502;10.252;2023-04-28T08:29:17;101132.69;;;13.54;50.49
16120;BME280;12670;53.502;10.252;2023-04-28T08:32:21;101137.06;;;13.37;52.24
16120;BME280;12670;53.502;10.252;2023-04-28T08:35:23;101138.44;;;13.45;51.60
16120;BME280;12670;53.502;10.252;2023-04-28T08:38:26;101139.88;;;13.52;48.45
16120;BME280;12670;53.502;10.252;2023-04-28T08:41:31;101133.03;;;13.66;52.18
16120;BME280;12670;53.502;10.252;2023-04-28T08:44:36;101131.50;;;13.79;51.97
16120;BME280;12670;53.502;10.252;2023-04-28T08:47:41;101134.22;;;13.77;49.18
16120;BME280;12670;53.502;10.252;2023-04-28T08:50:48;101133.63;;;13.72;50.95
16120;BME280;12670;53.502;10.252;2023-04-28T08:53:53;101128.34;;;13.71;50.35
16120;BME280;12670;53.502;10.252;2023-04-28T08:56:59;101127.72;;;13.83;48.71
16120;BME280;12670;53.502;10.252;2023-04-28T09:00:02;101119.97;;;13.78;49.06
16120;BME280;12670;53.502;10.252;2023-04-28T09:03:07;101116.75;;;13.89;51.04
16120;BME280;12670;53.502;10.252;2023-04-28T09:06:09;101115.13;;;13.86;51.87
16120;BME280;12670;53.502;10.252;2023-04-28T09:09:23;101108.31;;;13.98;50.43
16120;BME280;12670;53.502;10.252;2023-04-28T09:12:35;101103.75;;;14.00;50.95
16120;BME280;12670;53.502;10.252;2023-04-28T09:15:38;101097.78;;;13.95;49.07
16120;BME280;12670;53.502;10.252;2023-04-28T09:18:54;101098.56;;;13.80;48.35
16120;BME280;12670;53.502;10.252;2023-04-28T09:21:58;101099.28;;;14.01;54.23
16120;BME280;12670;53.502;10.252;2023-04-28T09:25:10;101087.06;;;14.14;48.04
16120;BME280;12670;53.502;10.252;2023-04-28T09:28:18;101079.59;;;14.21;49.03
16120;BME280;12670;53.502;10.252;2023-04-28T09:31:23;101077.00;;;14.36;50.25
16120;BME280;12670;53.502;10.252;2023-04-28T09:34:41;101085.97;;;14.86;47.37
16120;BME280;12670;53.502;10.252;2023-04-28T09:37:45;101084.88;;;15.06;45.83
16120;BME280;12670;53.502;10.252;2023-04-28T09:40:49;101077.13;;;15.01;47.95
16120;BME280;12670;53.502;10.252;2023-04-28T09:43:52;101078.31;;;15.11;47.68
16120;BME280;12670;53.502;10.252;2023-04-28T09:46:55;101079.72;;;15.03;47.07
16120;BME280;12670;53.502;10.252;2023-04-28T09:50:01;101075.75;;;15.10;47.66
16120;BME280;12670;53.502;10.252;2023-04-28T09:53:04;101071.94;;;14.98;45.98
16120;BME280;12670;53.502;10.252;2023-04-28T09:56:07;101076.00;;;15.05;47.23
16120;BME280;12670;53.502;10.252;2023-04-28T09:59:10;101065.19;;;14.75;46.45
16120;BME280;12670;53.502;10.252;2023-04-28T10:02:13;101063.72;;;15.18;46.51
16120;BME280;12670;53.502;10.252;2023-04-28T10:05:38;101055.25;;;15.26;46.01
16120;BME280;12670;53.502;10.252;2023-04-28T10:08:41;101057.88;;;15.58;47.55
16120;BME280;12670;53.502;10.252;2023-04-28T10:11:45;101046.16;;;15.60;46.42
16120;BME280;12670;53.502;10.252;2023-04-28T10:14:50;101050.72;;;15.58;46.72
16120;BME280;12670;53.502;10.252;2023-04-28T10:17:54;101045.56;;;15.71;48.16
16120;BME280;12670;53.502;10.252;2023-04-28T10:20:59;101039.19;;;16.04;46.17
16120;BME280;12670;53.502;10.252;2023-04-28T10:24:09;101034.28;;;15.96;45.22
16120;BME280;12670;53.502;10.252;2023-04-28T10:27:12;101024.34;;;15.52;45.02
16120;BME280;12670;53.502;10.252;2023-04-28T10:30:17;101022.84;;;16.22;46.02
16120;BME280;12670;53.502;10.252;2023-04-28T10:33:29;101012.31;;;16.05;44.93
16120;BME280;12670;53.502;10.252;2023-04-28T10:36:51;101015.00;;;16.05;45.06
16120;BME280;12670;53.502;10.252;2023-04-28T10:40:30;100999.44;;;16.26;44.14
16120;BME280;12670;53.502;10.252;2023-04-28T10:43:36;101003.94;;;16.25;43.95
16120;BME280;12670;53.502;10.252;2023-04-28T10:46:58;100993.72;;;16.61;45.74
16120;BME280;12670;53.502;10.252;2023-04-28T10:50:09;100984.84;;;16.74;46.46
16120;BME280;12670;53.502;10.252;2023-04-28T10:53:13;100987.31;;;16.92;43.15
16120;BME280;12670;53.502;10.252;2023-04-28T10:56:17;100998.63;;;16.54;45.29
16120;BME280;12670;53.502;10.252;2023-04-28T10:59:24;101001.47;;;16.37;45.28
16120;BME280;12670;53.502;10.252;2023-04-28T11:02:38;100990.38;;;16.43;44.38
16120;BME280;12670;53.502;10.252;2023-04-28T11:06:16;100990.09;;;16.62;44.02
16120;BME280;12670;53.502;10.252;2023-04-28T11:09:46;100990.47;;;16.84;45.02
16120;BME280;12670;53.502;10.252;2023-04-28T11:13:24;100985.78;;;16.31;42.38
16120;BME280;12670;53.502;10.252;2023-04-28T11:16:27;100993.38;;;15.94;42.53
16120;BME280;12670;53.502;10.252;2023-04-28T11:19:31;100989.63;;;16.55;45.17
16120;BME280;12670;53.502;10.252;2023-04-28T11:22:34;100980.91;;;16.80;44.60
16120;BME280;12670;53.502;10.252;2023-04-28T11:25:53;100973.38;;;16.72;43.76
16120;BME280;12670;53.502;10.252;2023-04-28T11:28:56;100975.91;;;16.88;44.67
16120;BME280;12670;53.502;10.252;2023-04-28T11:32:00;100981.25;;;17.29;43.50
16120;BME280;12670;53.502;10.252;2023-04-28T11:35:04;100978.69;;;17.68;43.67
16120;BME280;12670;53.502;10.252;2023-04-28T11:38:10;100975.78;;;17.58;42.36
16120;BME280;12670;53.502;10.252;2023-04-28T11:41:14;100968.25;;;17.50;43.64
16120;BME280;12670;53.502;10.252;2023-04-28T11:44:18;100968.63;;;17.31;42.82
16120;BME280;12670;53.502;10.252;2023-04-28T11:47:28;100963.09;;;17.20;43.47
16120;BME280;12670;53.502;10.252;2023-04-28T11:50:35;100964.06;;;17.19;44.76
16120;BME280;12670;53.502;10.252;2023-04-28T11:53:41;100953.16;;;17.35;43.67
16120;BME280;12670;53.502;10.252;2023-04-28T11:56:45;100951.06;;;17.13;43.02
16120;BME280;12670;53.502;10.252;2023-04-28T11:59:48;100952.88;;;16.86;44.67
16120;BME280;12670;53.502;10.252;2023-04-28T12:02:51;100942.31;;;16.97;43.57
16120;BME280;12670;53.502;10.252;2023-04-28T12:05:54;100949.03;;;16.90;44.32
16120;BME280;12670;53.502;10.252;2023-04-28T12:08:57;100935.09;;;16.70;44.11
16120;BME280;12670;53.502;10.252;2023-04-28T12:12:07;100929.91;;;16.67;43.15
16120;BME280;12670;53.502;10.252;2023-04-28T12:15:10;100932.97;;;16.75;45.62
16120;BME280;12670;53.502;10.252;2023-04-28T12:18:13;100940.38;;;16.99;44.53
16120;BME280;12670;53.502;10.252;2023-04-28T12:21:20;100933.25;;;16.85;45.72
16120;BME280;12670;53.502;10.252;2023-04-28T12:24:23;100928.56;;;16.89;44.17
16120;BME280;12670;53.502;10.252;2023-04-28T12:27:28;100921.69;;;16.70;45.57
16120;BME280;12670;53.502;10.252;2023-04-28T12:30:33;100922.53;;;16.85;44.38
16120;BME280;12670;53.502;10.252;2023-04-28T12:33:39;100917.69;;;16.77;44.27
16120;BME280;12670;53.502;10.252;2023-04-28T12:36:41;100902.44;;;16.64;45.16
16120;BME280;12670;53.502;10.252;2023-04-28T12:39:46;100904.31;;;16.49;45.18
16120;BME280;12670;53.502;10.252;2023-04-28T12:42:50;100907.72;;;16.51;46.88
16120;BME280;12670;53.502;10.252;2023-04-28T12:45:53;100898.94;;;16.35;46.02
16120;BME280;12670;53.502;10.252;2023-04-28T12:48:56;100896.09;;;16.38;46.75
16120;BME280;12670;53.502;10.252;2023-04-28T12:51:59;100898.38;;;16.15;45.91
16120;BME280;12670;53.502;10.252;2023-04-28T12:55:02;100891.81;;;16.07;45.48
16120;BME280;12670;53.502;10.252;2023-04-28T12:58:06;100881.66;;;15.83;46.24
16120;BME280;12670;53.502;10.252;2023-04-28T13:01:08;100882.41;;;15.85;46.62
16120;BME280;12670;53.502;10.252;2023-04-28T13:04:11;100871.03;;;15.67;48.08
16120;BME280;12670;53.502;10.252;2023-04-28T13:07:14;100864.94;;;15.65;47.23
16120;BME280;12670;53.502;10.252;2023-04-28T13:10:17;100863.78;;;15.69;49.31
16120;BME280;12670;53.502;10.252;2023-04-28T13:13:23;100874.13;;;15.90;47.92
16120;BME280;12670;53.502;10.252;2023-04-28T13:16:25;100861.72;;;15.59;49.87
16120;BME280;12670;53.502;10.252;2023-04-28T13:19:30;100855.00;;;15.67;48.50
16120;BME280;12670;53.502;10.252;2023-04-28T13:22:34;100858.53;;;15.68;50.65
16120;BME280;12670;53.502;10.252;2023-04-28T13:25:37;100852.44;;;15.50;49.20
16120;BME280;12670;53.502;10.252;2023-04-28T13:28:41;100854.75;;;15.56;47.72
16120;BME280;12670;53.502;10.252;2023-04-28T13:31:44;100853.41;;;15.49;48.24
16120;BME280;12670;53.502;10.252;2023-04-28T13:34:47;100856.44;;;15.43;49.66
16120;BME280;12670;53.502;10.252;2023-04-28T13:37:50;100848.22;;;15.46;49.22
16120;BME280;12670;53.502;10.252;2023-04-28T13:40:56;100849.09;;;15.46;49.98
16120;BME280;12670;53.502;10.252;2023-04-28T13:44:00;100834.28;;;15.41;49.90
16120;BME280;12670;53.502;10.252;2023-04-28T13:47:03;100830.72;;;15.26;49.07
16120;BME280;12670;53.502;10.252;2023-04-28T13:50:09;100830.03;;;15.23;49.00
16120;BME280;12670;53.502;10.252;2023-04-28T13:53:12;100828.44;;;15.34;52.14
16120;BME280;12670;53.502;10.252;2023-04-28T13:56:14;100827.22;;;15.40;50.30
16120;BME280;12670;53.502;10.252;2023-04-28T13:59:18;100809.44;;;15.39;51.29
16120;BME280;12670;53.502;10.252;2023-04-28T14:02:21;100810.00;;;15.30;50.52
16120;BME280;12670;53.502;10.252;2023-04-28T14:05:25;100812.41;;;15.34;51.49
16120;BME280;12670;53.502;10.252;2023-04-28T14:08:31;100808.03;;;15.47;50.92
16120;BME280;12670;53.502;10.252;2023-04-28T14:11:34;100812.41;;;15.34;50.50
16120;BME280;12670;53.502;10.252;2023-04-28T14:14:38;100803.34;;;15.51;50.14
16120;BME280;12670;53.502;10.252;2023-04-28T14:17:41;100806.72;;;15.55;51.16
16120;BME280;12670;53.502;10.252;2023-04-28T14:20:44;100811.97;;;15.56;49.86
16120;BME280;12670;53.502;10.252;2023-04-28T14:23:46;100812.81;;;15.57;50.22
16120;BME280;12670;53.502;10.252;2023-04-28T14:26:49;100805.84;;;15.54;51.31
16120;BME280;12670;53.502;10.252;2023-04-28T14:29:54;100795.06;;;15.56;51.94
16120;BME280;12670;53.502;10.252;2023-04-28T14:32:57;100791.53;;;15.55;53.58
16120;BME280;12670;53.502;10.252;2023-04-28T14:35:59;100796.09;;;15.39;51.53
16120;BME280;12670;53.502;10.252;2023-04-28T14:39:03;100787.13;;;15.54;51.88
16120;BME280;12670;53.502;10.252;2023-04-28T14:42:05;100788.84;;;15.55;52.43
16120;BME280;12670;53.502;10.252;2023-04-28T14:45:10;100780.03;;;15.53;51.78
16120;BME280;12670;53.502;10.252;2023-04-28T14:48:13;100782.16;;;15.48;53.50
16120;BME280;12670;53.502;10.252;2023-04-28T14:51:15;100781.78;;;15.54;53.25
16120;BME280;12670;53.502;10.252;2023-04-28T14:54:18;100794.16;;;15.41;52.26
16120;BME280;12670;53.502;10.252;2023-04-28T14:57:22;100789.41;;;15.32;53.39
16120;BME280;12670;53.502;10.252;2023-04-28T15:00:26;100789.94;;;15.23;53.09
16120;BME280;12670;53.502;10.252;2023-04-28T15:03:29;100782.63;;;15.26;52.35
16120;BME280;12670;53.502;10.252;2023-04-28T15:06:33;100768.56;;;15.08;53.51
16120;BME280;12670;53.502;10.252;2023-04-28T15:09:35;100766.50;;;14.98;53.71
16120;BME280;12670;53.502;10.252;2023-04-28T15:12:38;100753.63;;;14.90;55.15
16120;BME280;12670;53.502;10.252;2023-04-28T15:15:42;100754.78;;;15.00;55.94
16120;BME280;12670;53.502;10.252;2023-04-28T15:18:45;100753.75;;;15.03;56.31
16120;BME280;12670;53.502;10.252;2023-04-28T15:21:48;100752.66;;;14.91;54.92
16120;BME280;12670;53.502;10.252;2023-04-28T15:24:51;100749.03;;;14.92;55.35
16120;BME280;12670;53.502;10.252;2023-04-28T15:27:55;100750.00;;;14.91;55.97
16120;BME280;12670;53.502;10.252;2023-04-28T15:30:59;100748.81;;;14.81;53.25
16120;BME280;12670;53.502;10.252;2023-04-28T15:34:02;100751.38;;;14.82;55.05
16120;BME280;12670;53.502;10.252;2023-04-28T15:37:37;100760.22;;;14.69;55.38
16120;BME280;12670;53.502;10.252;2023-04-28T15:40:41;100753.56;;;14.76;54.98
16120;BME280;12670;53.502;10.252;2023-04-28T15:43:44;100742.72;;;14.79;55.25
16120;BME280;12670;53.502;10.252;2023-04-28T15:46:48;100735.84;;;14.89;54.48
16120;BME280;12670;53.502;10.252;2023-04-28T15:49:52;100731.06;;;14.80;54.25
16120;BME280;12670;53.502;10.252;2023-04-28T15:52:55;100729.84;;;14.85;56.69
16120;BME280;12670;53.502;10.252;2023-04-28T15:55:58;100733.28;;;14.87;57.02
16120;BME280;12670;53.502;10.252;2023-04-28T15:59:01;100736.94;;;14.71;55.85